createdAt,value
2023-04-16T00:00:16.093Z,38.03
2023-04-16T00:05:20.126Z,37.37
2023-04-16T00:07:51.237Z,37.67
2023-04-16T00:10:25.692Z,37.39
2023-04-16T00:12:54.868Z,37.38
2023-04-16T00:15:26.196Z,37.73
2023-04-16T00:17:55.691Z,37.66
2023-04-16T00:20:24.958Z,38.18
2023-04-16T00:22:54.961Z,38.04
2023-04-16T00:25:24.228Z,37.86
2023-04-16T00:27:53.899Z,38.21
2023-04-16T00:30:24.360Z,38.14
2023-04-16T00:32:55.705Z,38.37
2023-04-16T00:35:41.440Z,38.50
2023-04-16T00:38:11.239Z,38.33
2023-04-16T00:40:41.305Z,38.23
2023-04-16T00:43:10.807Z,38.52
2023-04-16T00:45:40.923Z,38.67
2023-04-16T00:48:12.166Z,39.09
2023-04-16T00:50:41.848Z,38.71
2023-04-16T00:53:11.362Z,39.30
2023-04-16T00:55:41.652Z,39.70
2023-04-16T00:58:10.882Z,39.60
2023-04-16T01:00:39.991Z,39.31
2023-04-16T01:03:11.798Z,39.17
2023-04-16T01:05:41.764Z,39.56
2023-04-16T01:08:18.828Z,39.86
2023-04-16T01:10:52.813Z,39.88
2023-04-16T01:13:21.933Z,39.18
2023-04-16T01:15:51.967Z,39.74
2023-04-16T01:18:24.653Z,40.33
2023-04-16T01:20:55.861Z,40.00
2023-04-16T01:23:25.345Z,39.89
2023-04-16T01:25:55.838Z,40.06
2023-04-16T01:28:25.191Z,40.20
2023-04-16T01:30:54.584Z,40.37
2023-04-16T01:33:56.171Z,40.30
2023-04-16T01:36:33.564Z,40.20
2023-04-16T01:39:03.067Z,40.17
2023-04-16T01:41:42.600Z,40.52
2023-04-16T01:44:12.121Z,39.93
2023-04-16T01:46:41.733Z,40.42
2023-04-16T01:51:53.318Z,40.69
2023-04-16T01:54:23.093Z,40.67
2023-04-16T01:56:52.266Z,40.61
2023-04-16T01:59:21.539Z,41.32
2023-04-16T02:01:51.108Z,41.20
2023-04-16T02:04:24.640Z,41.14
2023-04-16T02:09:31.073Z,41.08
2023-04-16T02:12:01.762Z,41.11
2023-04-16T02:14:36.316Z,41.32
2023-04-16T02:17:10.506Z,40.95
2023-04-16T02:19:42.404Z,40.68
2023-04-16T02:22:14.867Z,41.33
2023-04-16T02:24:50.852Z,41.48
2023-04-16T02:27:20.081Z,40.91
2023-04-16T02:29:55.633Z,41.27
2023-04-16T02:32:25.368Z,41.25
2023-04-16T02:34:56.679Z,41.49
2023-04-16T02:37:32.864Z,41.63
2023-04-16T02:40:02.185Z,41.24
2023-04-16T02:42:32.664Z,41.82
2023-04-16T02:45:02.080Z,41.82
2023-04-16T02:47:34.886Z,41.94
2023-04-16T02:50:06.114Z,42.30
2023-04-16T02:52:37.424Z,42.04
2023-04-16T02:57:46.899Z,42.63
2023-04-16T03:00:16.480Z,42.63
2023-04-16T03:05:26.352Z,42.99
2023-04-16T03:07:57.530Z,44.02
2023-04-16T03:10:27.294Z,43.63
2023-04-16T03:12:56.541Z,43.49
2023-04-16T03:15:26.017Z,43.54
2023-04-16T03:17:55.457Z,43.37
2023-04-16T03:20:30.312Z,43.69
2023-04-16T03:23:01.951Z,43.77
2023-04-16T03:25:31.472Z,42.95
2023-04-16T03:28:00.898Z,43.09
2023-04-16T03:30:37.594Z,43.10
2023-04-16T03:33:08.626Z,42.78
2023-04-16T03:35:37.989Z,42.53
2023-04-16T03:38:09.487Z,42.75
2023-04-16T03:40:44.000Z,42.25
2023-04-16T03:43:23.271Z,42.67
2023-04-16T03:45:58.449Z,42.27
2023-04-16T03:48:27.859Z,41.86
2023-04-16T03:50:57.090Z,42.13
2023-04-16T03:53:35.166Z,41.95
2023-04-16T03:56:09.471Z,41.94
2023-04-16T03:58:38.700Z,41.81
2023-04-16T04:01:07.930Z,41.54
2023-04-16T04:03:43.714Z,41.17
2023-04-16T04:06:14.486Z,40.59
2023-04-16T04:08:46.159Z,40.46
2023-04-16T04:11:16.920Z,40.26
2023-04-16T04:13:52.037Z,39.77
2023-04-16T04:16:25.549Z,39.51
2023-04-16T04:18:55.348Z,38.76
2023-04-16T04:21:26.996Z,38.53
2023-04-16T04:23:58.479Z,38.27
2023-04-16T04:26:27.879Z,37.74
2023-04-16T04:28:57.129Z,37.82
2023-04-16T04:31:26.505Z,37.27
2023-04-16T04:33:55.727Z,37.22
2023-04-16T04:36:26.782Z,36.94
2023-04-16T04:41:35.831Z,36.52
2023-04-16T04:44:06.781Z,36.22
2023-04-16T04:46:42.043Z,35.48
2023-04-16T04:49:11.745Z,35.60
2023-04-16T04:51:41.115Z,35.19
2023-04-16T04:54:12.591Z,34.85
2023-04-16T04:56:47.784Z,35.16
2023-04-16T05:01:58.698Z,34.83
2023-04-16T05:04:35.102Z,34.74
2023-04-16T05:07:04.624Z,34.60
2023-04-16T05:09:40.796Z,34.33
2023-04-16T05:12:10.620Z,34.39
2023-04-16T05:14:39.793Z,34.49
2023-04-16T05:17:10.584Z,34.14
2023-04-16T05:19:40.251Z,33.85
2023-04-16T05:22:09.921Z,33.35
2023-04-16T05:24:41.376Z,33.28
2023-04-16T05:27:10.650Z,33.30
2023-04-16T05:29:57.879Z,32.85
2023-04-16T05:32:28.648Z,33.40
2023-04-16T05:35:09.880Z,33.21
2023-04-16T05:37:39.102Z,32.74
2023-04-16T05:40:12.068Z,32.72
2023-04-16T05:42:41.688Z,32.51
2023-04-16T05:45:12.033Z,32.78
2023-04-16T05:47:51.837Z,32.44
2023-04-16T05:50:21.178Z,32.29
2023-04-16T05:52:50.491Z,32.63
2023-04-16T05:55:23.093Z,31.66
2023-04-16T05:57:52.453Z,31.54
2023-04-16T06:00:27.905Z,31.20
2023-04-16T06:02:57.683Z,30.50
2023-04-16T06:05:28.538Z,30.67
2023-04-16T06:08:02.911Z,30.85
2023-04-16T06:10:34.121Z,30.46
2023-04-16T06:13:03.596Z,29.94
2023-04-16T06:15:32.874Z,30.04
2023-04-16T06:18:02.316Z,29.25
2023-04-16T06:20:37.048Z,29.37
2023-04-16T06:23:19.373Z,29.30
2023-04-16T06:25:50.769Z,29.48
2023-04-16T06:28:25.467Z,28.76
2023-04-16T06:30:54.756Z,29.02
2023-04-16T06:33:35.891Z,29.15
2023-04-16T06:36:05.618Z,28.08
2023-04-16T06:38:34.946Z,28.08
2023-04-16T06:41:06.329Z,28.21
2023-04-16T06:43:35.837Z,28.26
2023-04-16T06:46:05.523Z,28.11
2023-04-16T06:48:35.058Z,28.29
2023-04-16T06:51:14.399Z,28.07
2023-04-16T06:53:44.278Z,28.23
2023-04-16T06:56:15.737Z,27.31
2023-04-16T07:01:25.223Z,26.63
2023-04-16T07:03:54.792Z,26.21
2023-04-16T07:06:24.182Z,26.20
2023-04-16T07:08:53.945Z,26.00
2023-04-16T07:11:25.582Z,24.76
2023-04-16T07:14:01.076Z,24.52
2023-04-16T07:16:30.482Z,24.40
2023-04-16T07:18:59.711Z,23.60
2023-04-16T07:21:36.032Z,22.79
2023-04-16T07:24:10.259Z,22.53
2023-04-16T07:26:41.572Z,22.05
2023-04-16T07:29:16.753Z,22.39
2023-04-16T07:31:46.576Z,21.59
2023-04-16T07:34:16.028Z,21.26
2023-04-16T07:36:45.409Z,20.53
2023-04-16T07:39:20.905Z,20.49
2023-04-16T07:41:52.302Z,20.47
2023-04-16T07:44:26.876Z,20.94
2023-04-16T07:46:56.191Z,20.82
2023-04-16T07:49:25.650Z,20.58
2023-04-16T07:51:54.875Z,20.62
2023-04-16T07:54:24.152Z,20.25
2023-04-16T07:56:55.415Z,20.75
2023-04-16T07:59:30.129Z,20.55
2023-04-16T08:01:59.761Z,20.31
2023-04-16T08:04:40.912Z,20.15
2023-04-16T08:07:10.583Z,19.51
2023-04-16T08:09:50.278Z,18.59
2023-04-16T08:12:22.789Z,18.71
2023-04-16T08:14:52.406Z,18.51
2023-04-16T08:17:21.682Z,18.84
2023-04-16T08:19:51.393Z,18.28
2023-04-16T08:22:26.025Z,18.26
2023-04-16T08:25:01.383Z,18.63
2023-04-16T08:27:33.142Z,18.34
2023-04-16T08:30:02.440Z,19.16
2023-04-16T08:32:42.183Z,18.86
2023-04-16T08:35:12.538Z,19.44
2023-04-16T08:37:41.927Z,19.39
2023-04-16T08:40:12.065Z,19.56
2023-04-16T08:42:50.801Z,19.54
2023-04-16T08:45:20.486Z,19.81
2023-04-16T08:47:50.937Z,19.24
2023-04-16T08:50:24.252Z,19.73
2023-04-16T08:53:06.470Z,19.25
2023-04-16T08:55:39.431Z,19.47
2023-04-16T08:58:16.166Z,19.68
2023-04-16T09:00:46.052Z,19.79
2023-04-16T09:03:15.635Z,19.86
2023-04-16T09:05:46.305Z,19.39
2023-04-16T09:08:15.883Z,20.09
2023-04-16T09:10:45.498Z,19.76
2023-04-16T09:13:23.293Z,19.53
2023-04-16T09:15:56.763Z,19.67
2023-04-16T09:18:27.832Z,19.74
2023-04-16T09:20:57.655Z,19.33
2023-04-16T09:23:26.916Z,20.15
2023-04-16T09:25:57.432Z,19.86
2023-04-16T09:28:47.417Z,20.04
2023-04-16T09:31:22.083Z,19.99
2023-04-16T09:34:04.761Z,19.96
2023-04-16T09:36:35.113Z,19.94
2023-04-16T09:39:06.108Z,20.00
2023-04-16T09:41:44.280Z,19.73
2023-04-16T09:44:15.738Z,20.35
2023-04-16T09:46:45.387Z,20.69
2023-04-16T09:49:16.887Z,19.95
2023-04-16T09:51:47.734Z,20.37
2023-04-16T09:54:17.111Z,20.45
2023-04-16T09:56:47.662Z,19.93
2023-04-16T09:59:22.016Z,20.03
2023-04-16T10:02:15.750Z,20.31
2023-04-16T10:04:52.917Z,19.98
2023-04-16T10:07:23.065Z,19.84
2023-04-16T10:09:52.872Z,19.42
2023-04-16T10:12:22.794Z,19.33
2023-04-16T10:14:59.141Z,19.59
2023-04-16T10:17:30.238Z,19.55
2023-04-16T10:20:01.224Z,19.39
2023-04-16T10:22:36.467Z,19.89
2023-04-16T10:25:06.287Z,19.41
2023-04-16T10:27:35.876Z,19.22
2023-04-16T10:32:55.291Z,19.96
2023-04-16T10:35:27.364Z,19.02
2023-04-16T10:37:58.806Z,19.51
2023-04-16T10:40:34.459Z,19.30
2023-04-16T10:43:03.962Z,19.43
2023-04-16T10:45:40.046Z,19.26
2023-04-16T10:48:11.501Z,19.29
2023-04-16T10:50:41.174Z,19.18
2023-04-16T10:53:20.965Z,19.19
2023-04-16T10:56:13.814Z,18.61
2023-04-16T10:58:43.762Z,18.80
2023-04-16T11:01:20.330Z,18.11
2023-04-16T11:03:50.135Z,18.15
2023-04-16T11:06:26.744Z,18.97
2023-04-16T11:08:56.419Z,19.12
2023-04-16T11:11:25.812Z,19.34
2023-04-16T11:13:58.968Z,19.29
2023-04-16T11:16:33.739Z,19.01
2023-04-16T11:19:08.519Z,18.72
2023-04-16T11:21:47.960Z,18.67
2023-04-16T11:26:53.992Z,17.94
2023-04-16T11:29:23.321Z,18.32
2023-04-16T11:31:59.810Z,18.48
2023-04-16T11:34:29.272Z,18.51
2023-04-16T11:36:58.829Z,18.58
2023-04-16T11:39:28.422Z,18.81
2023-04-16T11:41:57.742Z,18.76
2023-04-16T11:44:28.978Z,18.63
2023-04-16T11:47:00.325Z,18.39
2023-04-16T11:54:52.688Z,18.59
2023-04-16T11:57:27.593Z,19.17
2023-04-16T12:00:02.381Z,19.36
2023-04-16T12:02:46.387Z,19.57
2023-04-16T12:05:30.850Z,20.00
2023-04-16T12:08:06.420Z,19.53
2023-04-16T12:10:55.792Z,19.94
2023-04-16T12:13:25.252Z,20.01
2023-04-16T12:15:55.651Z,19.91
2023-04-16T12:18:33.149Z,19.24
2023-04-16T12:21:18.512Z,19.43
2023-04-16T12:23:48.008Z,20.00
2023-04-16T12:26:17.783Z,20.02
2023-04-16T12:28:47.032Z,19.94
2023-04-16T12:31:44.072Z,19.73
2023-04-16T12:34:21.528Z,20.30
2023-04-16T12:37:09.106Z,19.49
2023-04-16T12:39:38.469Z,19.72
2023-04-16T12:42:15.926Z,19.89
2023-04-16T12:52:07.118Z,19.71
2023-04-16T12:54:36.133Z,19.70
2023-04-16T12:57:05.613Z,19.95
2023-04-16T12:59:42.041Z,20.00
2023-04-16T13:02:11.347Z,19.98
2023-04-16T13:04:40.996Z,20.17
2023-04-16T13:07:12.429Z,19.77
2023-04-16T13:09:48.344Z,19.73
2023-04-16T13:12:19.181Z,19.53
2023-04-16T13:14:48.532Z,19.98
2023-04-16T13:17:17.910Z,19.92
2023-04-16T13:19:52.490Z,19.89
2023-04-16T13:22:26.405Z,19.88
2023-04-16T13:25:01.739Z,19.71
2023-04-16T13:27:32.742Z,19.73
2023-04-16T13:30:02.260Z,19.87
2023-04-16T13:32:34.577Z,19.54
2023-04-16T13:35:09.711Z,19.66
2023-04-16T13:37:41.507Z,19.80
2023-04-16T13:40:17.045Z,19.44
2023-04-16T13:42:46.386Z,19.75
2023-04-16T13:45:19.992Z,19.75
2023-04-16T13:47:49.497Z,19.69
2023-04-16T13:50:18.814Z,19.58
2023-04-16T13:52:55.064Z,19.74
2023-04-16T13:55:24.600Z,19.58
2023-04-16T13:57:56.269Z,19.59
2023-04-16T14:00:27.373Z,19.73
2023-04-16T14:02:57.135Z,19.97
2023-04-16T14:08:04.034Z,19.74
2023-04-16T14:10:33.799Z,19.66
2023-04-16T14:13:03.146Z,19.92
2023-04-16T14:15:32.705Z,19.83
2023-04-16T14:18:03.400Z,20.25
2023-04-16T14:20:35.647Z,20.13
2023-04-16T14:23:12.169Z,20.08
2023-04-16T14:25:41.736Z,20.63
2023-04-16T14:28:11.075Z,19.98
2023-04-16T14:30:40.679Z,20.03
2023-04-16T14:33:09.849Z,20.23
2023-04-16T14:35:39.153Z,20.32
2023-04-16T14:38:08.581Z,20.03
2023-04-16T14:40:39.908Z,19.89
2023-04-16T14:43:09.300Z,20.26
2023-04-16T14:45:38.706Z,20.16
2023-04-16T14:48:08.748Z,19.95
2023-04-16T14:50:38.634Z,20.14
2023-04-16T14:53:07.974Z,20.35
2023-04-16T14:55:37.533Z,20.05
2023-04-16T14:58:09.267Z,19.71
2023-04-16T15:00:38.493Z,20.06
2023-04-16T15:03:07.984Z,20.44
2023-04-16T15:05:38.553Z,20.20
2023-04-16T15:08:08.122Z,20.69
2023-04-16T15:10:37.732Z,20.75
2023-04-16T15:15:49.144Z,20.59
2023-04-16T15:18:18.667Z,20.87
2023-04-16T15:23:32.970Z,20.70
2023-04-16T15:26:02.439Z,20.69
2023-04-16T15:28:33.625Z,20.75
2023-04-16T15:31:03.263Z,20.79
2023-04-16T15:33:32.572Z,21.10
2023-04-16T15:36:01.787Z,21.08
2023-04-16T15:38:31.714Z,20.74
2023-04-16T15:41:01.668Z,20.86
2023-04-16T15:43:38.328Z,20.84
2023-04-16T15:46:08.985Z,20.81
2023-04-16T15:48:38.354Z,20.64
2023-04-16T15:51:08.135Z,21.01
2023-04-16T15:53:37.567Z,21.67
2023-04-16T15:56:07.326Z,22.00
2023-04-16T15:58:38.988Z,22.19
2023-04-16T16:01:09.538Z,22.98
2023-04-16T16:03:39.516Z,23.29
2023-04-16T16:06:14.417Z,23.58
2023-04-16T16:08:44.040Z,24.09
2023-04-16T16:11:13.171Z,24.18
2023-04-16T16:13:44.449Z,24.62
2023-04-16T16:16:19.226Z,24.65
2023-04-16T16:18:48.584Z,24.89
2023-04-16T16:21:18.145Z,25.01
2023-04-16T16:23:48.695Z,24.71
2023-04-16T16:26:18.117Z,24.92
2023-04-16T16:28:54.423Z,25.50
2023-04-16T16:31:26.499Z,25.53
2023-04-16T16:33:56.245Z,25.88
2023-04-16T16:36:26.275Z,25.83
2023-04-16T16:38:56.627Z,26.38
2023-04-16T16:41:27.133Z,26.50
2023-04-16T16:43:58.781Z,26.47
2023-04-16T16:46:33.173Z,26.74
2023-04-16T16:49:10.110Z,26.83
2023-04-16T16:51:39.911Z,26.71
2023-04-16T16:56:49.835Z,26.87
2023-04-16T16:59:26.061Z,27.42
2023-04-16T17:01:55.564Z,27.24
2023-04-16T17:04:25.009Z,27.25
2023-04-16T17:06:54.475Z,27.25
2023-04-16T17:09:23.783Z,27.23
2023-04-16T17:11:53.245Z,27.90
2023-04-16T17:14:24.629Z,27.52
2023-04-16T17:17:00.182Z,27.79
2023-04-16T17:19:29.762Z,28.01
2023-04-16T17:21:59.211Z,27.88
2023-04-16T17:24:29.755Z,27.79
2023-04-16T17:29:41.762Z,27.93
2023-04-16T17:32:39.863Z,28.30
2023-04-16T17:35:10.654Z,28.21
2023-04-16T17:37:44.932Z,28.32
2023-04-16T17:40:17.753Z,28.74
2023-04-16T17:42:47.208Z,29.26
2023-04-16T17:45:23.476Z,29.50
2023-04-16T17:47:53.285Z,29.01
2023-04-16T17:50:22.554Z,29.57
2023-04-16T17:52:51.859Z,29.77
2023-04-16T17:55:21.323Z,29.65
2023-04-16T17:57:50.692Z,29.96
2023-04-16T18:00:23.323Z,30.29
2023-04-16T18:02:59.383Z,30.09
2023-04-16T18:05:29.087Z,29.81
2023-04-16T18:07:58.481Z,29.88
2023-04-16T18:10:36.174Z,30.25
2023-04-16T18:13:05.541Z,29.99
2023-04-16T18:15:39.800Z,30.90
2023-04-16T18:18:09.726Z,30.55
2023-04-16T18:20:39.159Z,30.69
2023-04-16T18:23:08.526Z,30.68
2023-04-16T18:25:38.141Z,30.75
2023-04-16T18:28:15.368Z,30.99
2023-04-16T18:30:46.547Z,31.32
2023-04-16T18:33:54.226Z,31.72
2023-04-16T18:36:23.340Z,31.63
2023-04-16T18:41:27.903Z,31.72
2023-04-16T18:43:57.361Z,31.78
2023-04-16T18:46:28.772Z,32.26
2023-04-16T18:48:58.694Z,32.15
2023-04-16T18:51:28.048Z,32.24
2023-04-16T18:53:57.447Z,32.68
2023-04-16T18:56:26.792Z,32.67
2023-04-16T18:58:56.372Z,32.23
2023-04-16T19:01:27.983Z,32.73
2023-04-16T19:03:57.342Z,32.69
2023-04-16T19:06:27.289Z,32.39
2023-04-16T19:09:20.202Z,32.41
2023-04-16T19:12:02.467Z,32.20
2023-04-16T19:14:36.711Z,32.16
2023-04-16T19:17:19.636Z,32.78
2023-04-16T19:22:23.850Z,32.55
2023-04-16T19:24:54.277Z,32.26
2023-04-16T19:27:23.707Z,32.15
2023-04-16T19:29:52.989Z,32.15
2023-04-16T19:32:29.453Z,32.36
2023-04-16T19:35:03.981Z,32.05
2023-04-16T19:37:33.717Z,31.80
2023-04-16T19:40:05.461Z,31.89
2023-04-16T19:42:40.228Z,31.74
2023-04-16T19:45:10.491Z,31.47
2023-04-16T19:50:18.095Z,31.13
2023-04-16T19:52:47.517Z,31.04
2023-04-16T19:55:22.423Z,31.18
2023-04-16T19:57:51.677Z,31.45
2023-04-16T20:00:21.586Z,30.91
2023-04-16T20:02:52.844Z,30.89
2023-04-16T20:05:22.247Z,30.69
2023-04-16T20:07:52.717Z,31.02
2023-04-16T20:10:22.417Z,30.98
2023-04-16T20:12:52.045Z,30.91
2023-04-16T20:15:27.009Z,30.80
2023-04-16T20:17:58.335Z,30.77
2023-04-16T20:20:27.741Z,30.61
2023-04-16T20:23:08.001Z,30.15
2023-04-16T20:25:37.479Z,30.61
2023-04-16T20:28:07.161Z,30.11
2023-04-16T20:33:25.287Z,30.10
2023-04-16T20:35:59.316Z,29.82
2023-04-16T20:38:31.827Z,30.00
2023-04-16T20:41:10.166Z,29.81
2023-04-16T20:43:44.450Z,29.37
2023-04-16T20:46:14.354Z,29.37
2023-04-16T20:48:45.809Z,29.86
2023-04-16T20:51:15.454Z,29.83
2023-04-16T20:53:44.617Z,29.92
2023-04-16T20:56:23.974Z,30.41
2023-04-16T20:58:53.670Z,30.45
2023-04-16T21:01:23.029Z,30.56
2023-04-16T21:04:00.250Z,30.72
2023-04-16T21:06:32.442Z,30.72
2023-04-16T21:09:12.334Z,31.11
2023-04-16T21:11:41.680Z,31.82
2023-04-16T21:14:11.080Z,31.22
2023-04-16T21:16:40.794Z,31.05
2023-04-16T21:19:14.541Z,31.93
2023-04-16T21:21:43.817Z,32.05
2023-04-16T21:24:12.946Z,32.63
2023-04-16T21:26:47.245Z,32.36
2023-04-16T21:29:16.964Z,32.28
2023-04-16T21:31:46.172Z,32.70
2023-04-16T21:34:22.500Z,32.92
2023-04-16T21:36:51.860Z,33.10
2023-04-16T21:39:22.455Z,33.53
2023-04-16T21:41:51.754Z,34.23
2023-04-16T21:44:20.942Z,34.25
2023-04-16T21:46:50.346Z,34.82
2023-04-16T21:49:21.576Z,35.94
2023-04-16T21:51:58.630Z,35.73
2023-04-16T21:54:27.911Z,35.80
2023-04-16T21:56:57.808Z,35.53
2023-04-16T21:59:27.047Z,36.26
2023-04-16T22:01:56.484Z,36.29
2023-04-16T22:04:36.695Z,36.56
2023-04-16T22:07:11.436Z,36.46
2023-04-16T22:09:41.199Z,36.46
2023-04-16T22:12:11.008Z,36.30
2023-04-16T22:14:49.211Z,36.48
2023-04-16T22:17:29.930Z,36.59
2023-04-16T22:20:08.663Z,37.08
2023-04-16T22:22:37.971Z,36.80
2023-04-16T22:25:08.351Z,37.32
2023-04-16T22:27:37.740Z,37.44
2023-04-16T22:30:08.879Z,37.88
2023-04-16T22:32:43.268Z,37.53
2023-04-16T22:35:14.732Z,38.55
2023-04-16T22:37:54.117Z,38.05
2023-04-16T22:40:23.361Z,38.35
2023-04-16T22:42:52.631Z,38.23
2023-04-16T22:45:27.315Z,37.96
2023-04-16T22:47:56.655Z,38.02
2023-04-16T22:50:28.202Z,38.28
2023-04-16T22:53:02.555Z,38.20
2023-04-16T22:55:31.768Z,38.29
2023-04-16T22:58:02.708Z,38.49
2023-04-16T23:00:39.583Z,37.96
2023-04-16T23:03:09.060Z,37.97
2023-04-16T23:05:45.393Z,37.32
2023-04-16T23:08:14.699Z,36.81
2023-04-16T23:10:43.921Z,35.86
2023-04-16T23:13:13.083Z,36.33
2023-04-16T23:15:43.347Z,36.03
2023-04-16T23:18:12.656Z,36.04
2023-04-16T23:20:42.136Z,35.99
2023-04-16T23:23:13.610Z,35.24
2023-04-16T23:25:47.989Z,35.05
2023-04-16T23:28:17.250Z,34.68
2023-04-16T23:30:46.476Z,34.52
2023-04-16T23:33:20.751Z,34.06
2023-04-16T23:35:55.232Z,33.24
2023-04-16T23:38:26.620Z,33.40
2023-04-16T23:40:55.902Z,33.04
2023-04-16T23:43:36.598Z,32.80
2023-04-16T23:46:05.944Z,32.79
2023-04-16T23:48:35.249Z,33.02
2023-04-16T23:51:09.756Z,32.97
2023-04-16T23:53:46.822Z,33.16
2023-04-16T23:58:51.625Z,33.62
